createdAt,value
2022-08-19T00:03:23.317Z,-57.00
2022-08-19T00:08:55.270Z,-56.00
2022-08-19T00:14:27.254Z,-56.00
2022-08-19T00:19:58.871Z,-56.00
2022-08-19T00:25:30.893Z,-56.00
2022-08-19T00:31:02.609Z,-56.00
2022-08-19T00:36:34.487Z,-56.00
2022-08-19T00:42:05.969Z,-56.00
2022-08-19T00:47:38.368Z,-56.00
2022-08-19T00:53:10.082Z,-57.00
2022-08-19T00:58:42.216Z,-56.00
2022-08-19T01:04:13.936Z,-57.00
2022-08-19T01:09:45.877Z,-56.00
2022-08-19T01:15:17.457Z,-56.00
2022-08-19T01:20:49.288Z,-53.00
2022-08-19T01:26:21.269Z,-56.00
2022-08-19T01:31:52.797Z,-56.00
2022-08-19T01:37:24.866Z,-56.00
2022-08-19T01:42:56.419Z,-57.00
2022-08-19T01:48:28.324Z,-57.00
2022-08-19T01:54:00.251Z,-56.00
2022-08-19T01:59:32.011Z,-56.00
2022-08-19T02:05:03.814Z,-57.00
2022-08-19T02:10:35.530Z,-57.00
2022-08-19T02:16:07.300Z,-56.00
2022-08-19T02:21:39.185Z,-57.00
2022-08-19T02:27:11.269Z,-57.00
2022-08-19T02:32:44.597Z,-56.00
2022-08-19T02:38:16.974Z,-56.00
2022-08-19T02:44:25.663Z,-57.00
2022-08-19T02:49:20.849Z,-56.00
2022-08-19T02:54:52.350Z,-57.00
2022-08-19T03:00:24.290Z,-57.00
2022-08-19T03:05:56.492Z,-57.00
2022-08-19T03:11:27.736Z,-56.00
2022-08-19T03:16:59.635Z,-57.00
2022-08-19T03:22:31.385Z,-58.00
2022-08-19T03:28:03.195Z,-56.00
2022-08-19T03:33:34.922Z,-57.00
2022-08-19T03:39:07.209Z,-57.00
2022-08-19T03:44:39.139Z,-57.00
2022-08-19T03:50:11.552Z,-55.00
2022-08-19T03:55:43.220Z,-53.00
2022-08-19T04:01:15.280Z,-55.00
2022-08-19T04:06:47.071Z,-55.00
2022-08-19T04:12:18.798Z,-54.00
2022-08-19T04:17:50.748Z,-56.00
2022-08-19T04:23:22.246Z,-55.00
2022-08-19T04:28:54.023Z,-55.00
2022-08-19T04:39:58.641Z,-55.00
2022-08-19T04:45:26.953Z,-55.00
2022-08-19T04:50:58.857Z,-55.00
2022-08-19T04:56:30.791Z,-56.00
2022-08-19T05:02:02.638Z,-54.00
2022-08-19T05:07:34.449Z,-56.00
2022-08-19T05:13:06.206Z,-55.00
2022-08-19T05:24:07.618Z,-56.00
2022-08-19T05:26:19.489Z,-56.00
2022-08-19T05:31:51.475Z,-52.00
2022-08-19T05:37:23.149Z,-55.00
2022-08-19T05:42:55.486Z,-56.00
2022-08-19T05:48:27.009Z,-56.00
2022-08-19T05:53:58.969Z,-54.00
2022-08-19T05:59:30.502Z,-55.00
2022-08-19T06:05:02.269Z,-55.00
2022-08-19T06:10:34.315Z,-56.00
2022-08-19T06:16:05.847Z,-56.00
2022-08-19T06:21:37.703Z,-56.00
2022-08-19T06:27:09.556Z,-56.00
2022-08-19T06:32:42.975Z,-57.00
2022-08-19T06:38:13.259Z,-56.00
2022-08-19T06:43:44.859Z,-55.00
2022-08-19T06:49:16.475Z,-56.00
2022-08-19T06:54:55.957Z,-56.00
2022-08-19T07:00:20.452Z,-55.00
2022-08-19T07:05:52.185Z,-56.00
2022-08-19T07:11:23.940Z,-56.00
2022-08-19T07:16:55.727Z,-56.00
2022-08-19T07:22:27.495Z,-55.00
2022-08-19T07:27:59.767Z,-55.00
2022-08-19T07:33:31.574Z,-55.00
2022-08-19T07:39:03.510Z,-57.00
2022-08-19T07:44:35.258Z,-56.00
2022-08-19T07:50:07.853Z,-56.00
2022-08-19T07:55:43.256Z,-57.00
2022-08-19T08:01:10.782Z,-56.00
2022-08-19T08:03:33.130Z,-55.00
2022-08-19T08:09:04.895Z,-56.00
2022-08-19T08:14:36.983Z,-56.00
2022-08-19T08:22:28.755Z,-56.00
2022-08-19T08:28:00.851Z,-52.00
2022-08-19T08:33:34.753Z,-56.00
2022-08-19T08:39:03.830Z,-56.00
2022-08-19T08:44:35.632Z,-55.00
2022-08-19T08:50:07.178Z,-56.00
2022-08-19T08:55:39.680Z,-56.00
2022-08-19T09:01:11.511Z,-56.00
2022-08-19T09:06:43.447Z,-56.00
2022-08-19T09:12:15.185Z,-56.00
2022-08-19T09:17:50.291Z,-55.00
2022-08-19T09:23:18.629Z,-56.00
2022-08-19T09:34:25.921Z,-56.00
2022-08-19T09:39:57.783Z,-56.00
2022-08-19T09:45:35.490Z,-56.00
2022-08-19T09:51:08.311Z,-58.00
2022-08-19T09:56:40.236Z,-58.00
2022-08-19T10:02:11.853Z,-58.00
2022-08-19T10:07:43.969Z,-58.00
2022-08-19T10:13:16.533Z,-56.00
2022-08-19T10:18:49.663Z,-58.00
2022-08-19T10:24:20.480Z,-56.00
2022-08-19T10:29:52.174Z,-56.00
2022-08-19T10:40:56.130Z,-57.00
2022-08-19T10:46:27.767Z,-56.00
2022-08-19T10:57:52.448Z,-57.00
2022-08-19T11:03:02.519Z,-57.00
2022-08-19T11:08:34.473Z,-57.00
2022-08-19T11:14:05.841Z,-57.00
2022-08-19T11:19:37.700Z,-57.00
2022-08-19T11:25:09.246Z,-58.00
2022-08-19T11:30:40.869Z,-59.00
2022-08-19T11:36:12.767Z,-57.00
2022-08-19T11:41:44.448Z,-57.00
2022-08-19T11:47:16.595Z,-56.00
2022-08-19T11:52:48.693Z,-57.00
2022-08-19T12:09:24.195Z,-58.00
2022-08-19T12:14:55.876Z,-57.00
2022-08-19T12:20:27.558Z,-58.00
2022-08-19T12:25:59.455Z,-58.00
2022-08-19T12:42:35.298Z,-58.00
2022-08-19T12:48:31.288Z,-59.00
2022-08-19T12:53:39.213Z,-59.00
2022-08-19T12:59:10.898Z,-58.00
2022-08-19T13:10:14.102Z,-59.00
2022-08-19T13:15:46.013Z,-59.00
2022-08-19T13:26:49.592Z,-59.00
2022-08-19T13:32:21.276Z,-57.00
2022-08-19T13:37:53.283Z,-57.00
2022-08-19T13:45:45.615Z,-56.00
2022-08-19T13:51:17.342Z,-58.00
2022-08-19T14:02:21.142Z,-59.00
2022-08-19T14:07:52.545Z,-56.00
2022-08-19T14:18:56.210Z,-57.00
2022-08-19T14:24:27.730Z,-58.00
2022-08-19T14:29:59.689Z,-57.00
2022-08-19T14:35:31.458Z,-56.00
2022-08-19T14:46:35.094Z,-59.00
2022-08-19T14:52:06.959Z,-57.00
2022-08-19T14:57:39.249Z,-58.00
2022-08-19T15:03:10.970Z,-58.00
2022-08-19T15:08:42.599Z,-58.00
2022-08-19T15:14:16.618Z,-57.00
2022-08-19T15:19:48.198Z,-59.00
2022-08-19T15:25:20.077Z,-58.00
2022-08-19T15:30:51.907Z,-58.00
2022-08-19T15:36:23.758Z,-58.00
2022-08-19T15:41:55.460Z,-58.00
2022-08-19T15:47:29.085Z,-55.00
2022-08-19T15:53:00.836Z,-55.00
2022-08-19T15:58:32.592Z,-54.00
2022-08-19T16:04:04.636Z,-55.00
2022-08-19T16:09:36.766Z,-55.00
2022-08-19T16:15:08.494Z,-54.00
2022-08-19T16:20:40.120Z,-54.00
2022-08-19T16:26:11.984Z,-55.00
2022-08-19T16:31:43.699Z,-54.00
2022-08-19T16:37:15.755Z,-54.00
2022-08-19T16:42:47.487Z,-55.00
2022-08-19T16:50:49.123Z,-54.00
2022-08-19T16:56:12.278Z,-55.00
2022-08-19T17:01:43.955Z,-55.00
2022-08-19T17:07:15.702Z,-54.00
2022-08-19T17:12:47.743Z,-53.00
2022-08-19T17:18:19.476Z,-54.00
2022-08-19T17:23:51.165Z,-54.00
2022-08-19T17:29:23.239Z,-54.00
2022-08-19T17:34:54.831Z,-54.00
2022-08-19T17:40:29.159Z,-54.00
2022-08-19T17:45:58.463Z,-54.00
2022-08-19T17:51:30.131Z,-54.00
2022-08-19T17:57:02.139Z,-54.00
2022-08-19T18:02:33.735Z,-54.00
2022-08-19T18:08:05.425Z,-54.00
2022-08-19T18:13:37.330Z,-54.00
2022-08-19T18:19:09.351Z,-53.00
2022-08-19T18:24:41.305Z,-54.00
2022-08-19T18:30:13.386Z,-55.00
2022-08-19T18:35:45.420Z,-55.00
2022-08-19T18:41:17.377Z,-54.00
2022-08-19T18:46:49.206Z,-55.00
2022-08-19T18:52:21.294Z,-55.00
2022-08-19T18:54:45.677Z,-54.00
2022-08-19T19:00:17.326Z,-54.00
2022-08-19T19:05:49.275Z,-55.00
2022-08-19T19:11:21.019Z,-54.00
2022-08-19T19:16:52.807Z,-54.00
2022-08-19T19:22:24.942Z,-54.00
2022-08-19T19:27:57.051Z,-54.00
2022-08-19T19:33:28.947Z,-55.00
2022-08-19T19:39:00.945Z,-55.00
2022-08-19T19:44:32.961Z,-55.00
2022-08-19T19:50:14.394Z,-54.00
2022-08-19T19:55:36.695Z,-54.00
2022-08-19T20:03:29.896Z,-54.00
2022-08-19T20:09:01.072Z,-55.00
2022-08-19T20:14:33.555Z,-55.00
2022-08-19T20:20:05.576Z,-55.00
2022-08-19T20:25:37.044Z,-54.00
2022-08-19T20:31:08.952Z,-53.00
2022-08-19T20:36:41.091Z,-54.00
2022-08-19T20:42:13.112Z,-54.00
2022-08-19T20:47:45.269Z,-55.00
2022-08-19T20:53:17.187Z,-55.00
2022-08-19T20:58:53.437Z,-55.00
2022-08-19T21:04:20.699Z,-54.00
2022-08-19T21:09:52.675Z,-54.00
2022-08-19T21:15:24.537Z,-54.00
2022-08-19T21:20:56.327Z,-54.00
2022-08-19T21:26:28.547Z,-55.00
2022-08-19T21:32:00.376Z,-54.00
2022-08-19T21:37:32.188Z,-54.00
2022-08-19T21:43:03.842Z,-55.00
2022-08-19T21:54:08.483Z,-58.00
2022-08-19T21:59:43.480Z,-58.00
2022-08-19T22:05:12.848Z,-58.00
2022-08-19T22:16:16.398Z,-58.00
2022-08-19T22:21:48.203Z,-59.00
2022-08-19T22:27:44.133Z,-59.00
2022-08-19T22:33:15.893Z,-59.00
2022-08-19T22:38:47.933Z,-59.00
2022-08-19T22:44:19.584Z,-59.00
2022-08-19T22:49:51.091Z,-57.00
2022-08-19T22:55:23.209Z,-59.00
2022-08-19T23:00:55.310Z,-58.00
2022-08-19T23:11:58.875Z,-59.00
2022-08-19T23:23:02.309Z,-59.00
2022-08-19T23:28:33.807Z,-58.00
2022-08-19T23:34:05.664Z,-59.00
2022-08-19T23:39:37.398Z,-57.00
2022-08-19T23:45:09.270Z,-57.00
2022-08-19T23:56:12.798Z,-58.00
